Troy Municipal Airport
KTOI : rendu visible

Aérodrome :











RETROUVEZ-NOUS SUR...

 
LOGIN :

S'inscrire | Disclaimer

   EN    FR    IT 

 









Légende :    VFR   VFR Marginal   IFR   IFR Intensif   IFR Très Intensif
Visi : 
Plafond : 
>= 8 km
>= 3000ft
5 à 8 km
1000 à 3000 ft
1500m à 5 km
500 à 1000 ft
800 à 1500m
200 à 500 ft
< 800m
< 200 ft
Symboles :   Orages  Brouillard  Fortes neiges  Fortes précipitations  Vent > 20 kt






- Altitude de l'aérodrome : 398 ft


KTOI - Troy Municipal

DERNIER METAR :
  • 151053Z AUTO 25004KT 10SM OVC005 23/22 A2992 RMK AO2 SLP127 T02330217

METARs EXPIRÉS :
  • 151051Z AUTO 24005KT 10SM OVC005 23/22 A2992 RMK AO2
  • 151024Z AUTO 24003KT 10SM OVC006 23/22 A2992 RMK AO2 T02330217
  • 151012Z AUTO 25004KT 10SM OVC007 23/21 A2992 RMK AO2 CIG 006V009 T02330211
  • 150953Z AUTO 24003KT 10SM OVC009 23/21 A2991 RMK AO2 CIG 008V013 SLP124 T02330211
  • 150911Z AUTO 00000KT 10SM OVC010 24/22 A2992 RMK AO2 CIG 007V013 T02390217
  • 150853Z AUTO 26005KT 10SM OVC008 24/22 A2992 RMK AO2 CIG 006V012 SLP124 T02390217 53000

TAF KTOI
Valide du 15 à 11h jusqu'au 16 à 06h UTC


151104Z 1511/1606 VRB04KT P6SM OVC005
FM151400 VRB04KT P6SM SCT017
TEMPO 1514/1516 BKN012 OVC025
FM151600 29008KT P6SM SCT030
FM151900 26009KT P6SM SHRA VCTS BKN045CB
PROB30 1521/1524 4SM TSRA OVC025CB
FM160000 30008KT P6SM BKN060
PROB30 1600/1603 4SM SHRA OVC025
FIR KZTL / Amérique du Nord



MET'MAP, la Météo Aéronautique d'un coup d'oeil ! - Copyright ORBIFLY Décembre 2007 - Disclaimer

ORBIFLY MET'MAP TEAM :

Programmation & Développement : Alexandra Zaïnal
Sur une idée originale de : Baudouin d'Aumeries
Assistance à la programmation : Marc-Olivier Méhu
Soutien technique & logistique : Manuel Goepfert

Contact : metmap@orbifly.com




SOURCES & CREDITS :

   NOAA       Earth
Advisory